createdAt,value
2023-01-02T00:00:33.729Z,63.76
2023-01-02T00:03:00.802Z,63.87
2023-01-02T00:05:27.995Z,64.23
2023-01-02T00:07:55.208Z,65.04
2023-01-02T00:10:22.289Z,65.70
2023-01-02T00:12:49.259Z,65.59
2023-01-02T00:15:16.337Z,63.97
2023-01-02T00:17:43.303Z,63.53
2023-01-02T00:20:10.520Z,63.63
2023-01-02T00:22:37.578Z,64.02
2023-01-02T00:25:05.305Z,64.38
2023-01-02T00:27:32.450Z,65.09
2023-01-02T00:29:59.801Z,65.58
2023-01-02T00:32:26.999Z,65.73
2023-01-02T00:34:54.047Z,64.41
2023-01-02T00:37:21.704Z,63.87
2023-01-02T00:39:48.701Z,64.38
2023-01-02T00:42:15.616Z,64.89
2023-01-02T00:44:44.599Z,65.16
2023-01-02T00:47:11.958Z,65.93
2023-01-02T00:49:38.897Z,66.06
2023-01-02T00:52:07.614Z,65.70
2023-01-02T00:54:34.447Z,64.85
2023-01-02T00:57:01.328Z,65.31
2023-01-02T00:59:28.302Z,65.46
2023-01-02T01:01:55.373Z,66.67
2023-01-02T01:04:22.253Z,66.83
2023-01-02T01:06:50.563Z,66.76
2023-01-02T01:09:18.252Z,65.78
2023-01-02T01:11:45.367Z,64.72
2023-01-02T01:14:12.568Z,64.75
2023-01-02T01:16:40.284Z,64.81
2023-01-02T01:19:07.311Z,65.72
2023-01-02T01:21:34.207Z,66.54
2023-01-02T01:24:01.054Z,66.75
2023-01-02T01:26:27.929Z,65.50
2023-01-02T01:28:55.509Z,64.56
2023-01-02T01:31:22.846Z,64.79
2023-01-02T01:33:50.028Z,64.76
2023-01-02T01:36:19.475Z,65.41
2023-01-02T01:38:46.686Z,65.72
2023-01-02T01:41:17.312Z,65.91
2023-01-02T01:43:50.403Z,64.64
2023-01-02T01:46:38.676Z,64.07
2023-01-02T01:49:07.035Z,64.14
2023-01-02T01:51:35.651Z,64.19
2023-01-02T01:54:06.302Z,64.86
2023-01-02T01:56:35.713Z,65.58
2023-01-02T01:59:02.568Z,65.50
2023-01-02T02:01:29.904Z,64.51
2023-01-02T02:03:56.991Z,64.15
2023-01-02T02:06:24.363Z,64.28
2023-01-02T02:08:59.667Z,64.83
2023-01-02T02:11:26.794Z,64.96
2023-01-02T02:13:59.817Z,65.58
2023-01-02T02:16:29.012Z,65.56
2023-01-02T02:19:17.091Z,64.84
2023-01-02T02:21:56.288Z,64.02
2023-01-02T02:24:44.451Z,64.10
2023-01-02T02:27:36.336Z,64.92
2023-01-02T02:30:14.904Z,65.97
2023-01-02T02:32:57.373Z,66.54
2023-01-02T02:35:49.332Z,66.36
2023-01-02T02:38:50.492Z,65.09
2023-01-02T02:41:29.297Z,64.25
2023-01-02T02:44:33.198Z,64.65
2023-01-02T02:47:02.075Z,65.10
2023-01-02T02:49:48.899Z,65.77
2023-01-02T02:52:46.772Z,66.41
2023-01-02T02:55:30.086Z,65.92
2023-01-02T02:57:57.261Z,64.69
2023-01-02T03:00:24.425Z,64.00
2023-01-02T03:02:51.441Z,64.19
2023-01-02T03:05:37.957Z,64.56
2023-01-02T03:08:16.875Z,65.08
2023-01-02T03:10:56.838Z,65.99
2023-01-02T03:13:40.818Z,66.04
2023-01-02T03:16:13.171Z,64.71
2023-01-02T03:19:03.717Z,64.11
2023-01-02T03:21:33.343Z,64.36
2023-01-02T03:24:02.383Z,64.09
2023-01-02T03:26:30.922Z,64.76
2023-01-02T03:29:01.636Z,65.26
2023-01-02T03:31:28.682Z,65.57
2023-01-02T03:34:01.874Z,64.50
2023-01-02T03:36:29.757Z,64.31
2023-01-02T03:39:16.845Z,64.31
2023-01-02T03:41:46.573Z,65.02
2023-01-02T03:44:13.483Z,65.29
2023-01-02T03:46:59.309Z,66.15
2023-01-02T03:49:38.671Z,66.19
2023-01-02T03:52:05.543Z,65.02
2023-01-02T03:54:32.979Z,64.75
2023-01-02T03:57:09.149Z,64.62
2023-01-02T03:59:46.515Z,64.94
2023-01-02T04:02:17.134Z,65.96
2023-01-02T04:04:51.198Z,66.57
2023-01-02T04:07:47.659Z,66.60
2023-01-02T04:10:15.145Z,64.54
2023-01-02T04:12:45.673Z,64.06
2023-01-02T04:15:13.248Z,64.02
2023-01-02T04:18:01.865Z,64.62
2023-01-02T04:20:31.397Z,65.24
2023-01-02T04:23:02.313Z,65.91
2023-01-02T04:25:32.088Z,66.14
2023-01-02T04:28:01.490Z,65.28
2023-01-02T04:30:29.725Z,64.93
2023-01-02T04:32:58.168Z,65.10
2023-01-02T04:35:24.989Z,65.28
2023-01-02T04:37:53.697Z,65.70
2023-01-02T04:40:38.983Z,66.42
2023-01-02T04:43:08.483Z,66.64
2023-01-02T04:45:35.393Z,65.57
2023-01-02T04:48:02.511Z,64.99
2023-01-02T04:50:29.635Z,64.94
2023-01-02T04:52:56.685Z,65.23
2023-01-02T04:55:23.675Z,65.63
2023-01-02T04:57:54.645Z,66.37
2023-01-02T05:00:21.693Z,66.38
2023-01-02T05:02:48.609Z,65.10
2023-01-02T05:05:15.597Z,64.55
2023-01-02T05:07:42.443Z,64.72
2023-01-02T05:10:10.601Z,65.07
2023-01-02T05:12:38.044Z,65.58
2023-01-02T05:15:06.997Z,66.04
2023-01-02T05:17:41.332Z,66.15
2023-01-02T05:20:10.792Z,64.97
2023-01-02T05:22:57.752Z,64.44
2023-01-02T05:25:25.606Z,64.44
2023-01-02T05:27:54.411Z,65.21
2023-01-02T05:30:21.992Z,65.81
2023-01-02T05:32:49.725Z,66.27
2023-01-02T05:35:16.818Z,66.45
2023-01-02T05:37:43.701Z,65.44
2023-01-02T05:40:11.526Z,64.82
2023-01-02T05:42:38.457Z,64.75
2023-01-02T05:45:05.895Z,65.20
2023-01-02T05:47:33.674Z,65.91
2023-01-02T05:50:00.835Z,66.43
2023-01-02T05:52:27.683Z,66.51
2023-01-02T05:54:55.030Z,65.34
2023-01-02T05:57:21.918Z,64.77
2023-01-02T05:59:48.812Z,64.75
2023-01-02T06:02:15.970Z,64.93
2023-01-02T06:04:42.926Z,65.38
2023-01-02T06:07:10.663Z,66.08
2023-01-02T06:09:37.563Z,66.45
2023-01-02T06:12:04.517Z,65.40
2023-01-02T06:14:31.637Z,65.12
2023-01-02T06:17:00.314Z,65.12
2023-01-02T06:19:27.905Z,65.34
2023-01-02T06:21:54.716Z,65.87
2023-01-02T06:24:21.638Z,66.37
2023-01-02T06:26:48.664Z,66.44
2023-01-02T06:29:15.845Z,64.89
2023-01-02T06:31:47.670Z,64.67
2023-01-02T06:34:17.952Z,64.79
2023-01-02T06:36:44.962Z,65.07
2023-01-02T06:39:12.850Z,65.44
2023-01-02T06:41:39.829Z,65.87
2023-01-02T06:44:06.819Z,66.15
2023-01-02T06:46:33.759Z,65.20
2023-01-02T06:49:00.960Z,64.74
2023-01-02T06:51:27.887Z,64.56
2023-01-02T06:53:55.739Z,64.97
2023-01-02T06:56:22.873Z,65.46
2023-01-02T06:58:49.892Z,66.11
2023-01-02T07:01:21.482Z,66.26
2023-01-02T07:03:48.769Z,65.31
2023-01-02T07:06:17.196Z,64.42
2023-01-02T07:08:44.319Z,64.32
2023-01-02T07:11:20.468Z,64.69
2023-01-02T07:13:48.031Z,65.17
2023-01-02T07:16:16.280Z,65.77
2023-01-02T07:18:43.780Z,65.66
2023-01-02T07:21:10.965Z,64.91
2023-01-02T07:23:37.847Z,64.65
2023-01-02T07:26:06.226Z,65.22
2023-01-02T07:28:33.676Z,65.39
2023-01-02T07:31:02.205Z,65.51
2023-01-02T07:33:29.572Z,65.47
2023-01-02T07:36:00.760Z,65.27
2023-01-02T07:38:27.766Z,63.76
2023-01-02T07:40:54.656Z,63.20
2023-01-02T07:43:21.562Z,63.10
2023-01-02T07:45:50.730Z,63.57
2023-01-02T07:48:18.741Z,64.02
2023-01-02T07:50:46.058Z,64.56
2023-01-02T07:53:13.246Z,64.97
2023-01-02T07:55:40.469Z,63.56
2023-01-02T07:58:07.677Z,63.19
2023-01-02T08:00:34.872Z,63.37
2023-01-02T08:03:01.783Z,63.78
2023-01-02T08:05:28.826Z,64.65
2023-01-02T08:07:57.015Z,65.12
2023-01-02T08:10:24.445Z,65.39
2023-01-02T08:12:52.315Z,64.07
2023-01-02T08:15:19.357Z,64.10
2023-01-02T08:17:46.547Z,64.24
2023-01-02T08:20:13.467Z,64.45
2023-01-02T08:22:40.283Z,65.08
2023-01-02T08:25:09.774Z,65.72
2023-01-02T08:27:37.136Z,65.69
2023-01-02T08:30:04.640Z,64.57
2023-01-02T08:32:35.893Z,63.69
2023-01-02T08:35:03.642Z,63.43
2023-01-02T08:37:30.613Z,63.72
2023-01-02T08:40:00.713Z,64.05
2023-01-02T08:42:27.672Z,64.69
2023-01-02T08:44:54.847Z,64.92
2023-01-02T08:47:23.193Z,63.49
2023-01-02T08:49:50.541Z,62.86
2023-01-02T08:52:17.400Z,62.90
2023-01-02T08:55:51.608Z,63.49
2023-01-02T08:58:18.999Z,63.96
2023-01-02T09:00:46.084Z,64.00
2023-01-02T09:03:13.079Z,62.69
2023-01-02T09:05:40.098Z,62.15
2023-01-02T09:08:07.860Z,62.33
2023-01-02T09:10:35.249Z,62.67
2023-01-02T09:13:03.744Z,62.92
2023-01-02T09:15:32.035Z,63.64
2023-01-02T09:17:59.498Z,63.83
2023-01-02T09:20:26.732Z,62.62
2023-01-02T09:22:53.683Z,61.94
2023-01-02T09:25:24.529Z,61.95
2023-01-02T09:27:52.116Z,62.30
2023-01-02T09:30:19.374Z,62.80
2023-01-02T09:32:49.262Z,63.43
2023-01-02T09:35:17.062Z,63.49
2023-01-02T09:37:44.503Z,62.20
2023-01-02T09:40:12.423Z,61.54
2023-01-02T09:42:39.863Z,61.63
2023-01-02T09:45:09.019Z,62.09
2023-01-02T09:47:36.239Z,62.58
2023-01-02T09:50:05.126Z,63.22
2023-01-02T09:52:36.802Z,63.33
2023-01-02T09:55:10.630Z,61.69
2023-01-02T09:58:10.564Z,60.79
2023-01-02T10:00:38.893Z,60.67
2023-01-02T10:03:21.705Z,61.10
2023-01-02T10:05:58.964Z,61.44
2023-01-02T10:08:36.518Z,61.95
2023-01-02T10:11:09.976Z,62.87
2023-01-02T10:16:45.105Z,57.45
2023-01-02T10:19:40.306Z,57.63
2023-01-02T10:22:09.182Z,59.48
2023-01-02T10:24:46.044Z,59.24
2023-01-02T10:27:17.216Z,58.85
2023-01-02T10:30:04.760Z,59.68
2023-01-02T10:32:33.021Z,60.74
2023-01-02T10:35:06.334Z,59.33
2023-01-02T10:37:33.949Z,56.83
2023-01-02T10:40:00.821Z,56.10
2023-01-02T10:42:27.637Z,56.27
2023-01-02T10:44:54.614Z,55.34
2023-01-02T10:47:38.308Z,55.19
2023-01-02T10:50:06.738Z,56.59
2023-01-02T10:52:35.530Z,55.95
2023-01-02T10:55:03.302Z,56.83
2023-01-02T10:57:33.195Z,57.18
2023-01-02T11:00:00.498Z,56.80
2023-01-02T11:02:32.424Z,56.92
2023-01-02T11:05:00.316Z,56.42
2023-01-02T11:07:27.233Z,56.63
2023-01-02T11:09:56.720Z,56.55
2023-01-02T11:12:27.280Z,56.40
2023-01-02T11:15:10.262Z,54.72
2023-01-02T11:17:44.165Z,53.51
2023-01-02T11:20:26.893Z,53.00
2023-01-02T11:22:55.213Z,52.31
2023-01-02T11:25:23.806Z,49.79
2023-01-02T11:27:51.538Z,48.18
2023-01-02T11:30:31.580Z,48.38
2023-01-02T11:33:22.584Z,47.65
2023-01-02T11:36:05.054Z,44.79
2023-01-02T11:38:48.412Z,45.06
2023-01-02T11:41:47.345Z,43.71
2023-01-02T11:44:26.783Z,43.82
2023-01-02T11:46:54.266Z,43.75
2023-01-02T11:49:23.633Z,43.26
2023-01-02T11:51:58.176Z,43.48
2023-01-02T11:54:40.083Z,43.21
2023-01-02T11:57:18.448Z,43.16
2023-01-02T11:59:48.048Z,43.20
2023-01-02T12:02:20.296Z,43.51
2023-01-02T12:04:50.705Z,43.23
2023-01-02T12:07:46.661Z,42.73
2023-01-02T12:10:17.151Z,42.86
2023-01-02T12:12:56.998Z,43.50
2023-01-02T12:15:42.728Z,43.40
2023-01-02T12:18:22.992Z,42.96
2023-01-02T12:20:54.418Z,43.18
2023-01-02T12:23:30.969Z,43.59
2023-01-02T12:26:25.172Z,41.94
2023-01-02T12:29:13.182Z,41.75
2023-01-02T12:32:06.842Z,42.23
2023-01-02T12:34:44.154Z,42.38
2023-01-02T12:37:17.240Z,42.32
2023-01-02T12:40:02.617Z,41.75
2023-01-02T12:43:03.541Z,41.52
2023-01-02T12:45:39.281Z,41.86
2023-01-02T12:48:19.907Z,42.01
2023-01-02T12:51:11.439Z,41.27
2023-01-02T12:54:19.512Z,41.61
2023-01-02T12:56:56.741Z,41.97
2023-01-02T12:59:35.573Z,42.36
2023-01-02T13:02:25.884Z,42.75
2023-01-02T13:04:56.762Z,43.26
2023-01-02T13:07:29.794Z,43.52
2023-01-02T13:09:56.670Z,44.09
2023-01-02T13:12:25.551Z,43.89
2023-01-02T13:14:54.162Z,43.54
2023-01-02T13:17:45.343Z,44.03
2023-01-02T13:20:50.958Z,43.44
2023-01-02T13:23:41.194Z,43.79
2023-01-02T13:26:09.359Z,44.18
2023-01-02T13:28:44.097Z,44.13
2023-01-02T13:31:44.642Z,44.18
2023-01-02T13:33:58.763Z,44.45
2023-01-02T13:36:39.676Z,44.84
2023-01-02T13:39:17.706Z,45.05
2023-01-02T13:42:21.797Z,45.14
2023-01-02T13:44:53.727Z,45.72
2023-01-02T13:47:25.574Z,46.43
2023-01-02T13:50:20.028Z,47.41
2023-01-02T13:53:09.995Z,47.61
2023-01-02T13:55:57.329Z,48.31
2023-01-02T13:58:25.695Z,49.24
2023-01-02T14:00:55.814Z,49.24
2023-01-02T14:03:23.461Z,49.80
2023-01-02T14:06:01.836Z,50.05
2023-01-02T14:08:30.839Z,50.94
2023-01-02T14:11:21.644Z,51.58
2023-01-02T14:13:51.209Z,52.13
2023-01-02T14:16:41.338Z,52.55
2023-01-02T14:19:14.028Z,53.09
2023-01-02T14:21:54.204Z,53.29
2023-01-02T14:24:41.293Z,53.75
2023-01-02T14:27:27.792Z,54.76
2023-01-02T14:30:08.877Z,55.25
2023-01-02T14:32:46.131Z,56.01
2023-01-02T14:35:12.990Z,56.47
2023-01-02T14:37:48.140Z,56.94
2023-01-02T14:40:21.347Z,57.01
2023-01-02T14:43:13.865Z,57.16
2023-01-02T14:45:44.940Z,57.17
2023-01-02T14:48:13.398Z,58.56
2023-01-02T14:50:40.371Z,58.61
2023-01-02T14:53:19.146Z,56.99
2023-01-02T14:55:46.282Z,56.15
2023-01-02T14:58:21.879Z,55.95
2023-01-02T15:00:48.941Z,56.39
2023-01-02T15:03:23.842Z,56.52
2023-01-02T15:05:56.504Z,56.82
2023-01-02T15:08:31.848Z,57.15
2023-01-02T15:11:20.596Z,57.55
2023-01-02T15:14:04.498Z,58.17
2023-01-02T15:16:34.647Z,58.94
2023-01-02T15:19:02.180Z,59.90
2023-01-02T15:21:31.643Z,60.04
2023-01-02T15:24:00.163Z,58.71
2023-01-02T15:26:32.986Z,58.22
2023-01-02T15:29:03.650Z,58.27
2023-01-02T15:31:30.656Z,58.46
2023-01-02T15:34:00.371Z,59.08
2023-01-02T15:36:37.325Z,59.62
2023-01-02T15:39:06.964Z,59.83
2023-01-02T15:41:41.311Z,60.06
2023-01-02T15:44:29.062Z,60.48
2023-01-02T15:46:56.470Z,61.35
2023-01-02T15:49:23.774Z,61.23
2023-01-02T15:51:51.372Z,60.05
2023-01-02T15:54:18.753Z,59.15
2023-01-02T15:56:45.692Z,59.19
2023-01-02T15:59:28.901Z,59.52
2023-01-02T16:01:56.304Z,60.38
2023-01-02T16:04:25.051Z,60.50
2023-01-02T16:06:52.087Z,60.97
2023-01-02T16:09:24.200Z,61.27
2023-01-02T16:11:53.417Z,61.81
2023-01-02T16:14:38.973Z,60.20
2023-01-02T16:17:27.921Z,59.69
2023-01-02T16:19:58.784Z,59.52
2023-01-02T16:22:31.316Z,60.24
2023-01-02T16:25:13.273Z,61.10
2023-01-02T16:27:48.190Z,61.38
2023-01-02T16:30:38.186Z,61.71
2023-01-02T16:33:34.355Z,62.68
2023-01-02T16:36:04.269Z,62.08
2023-01-02T16:38:53.142Z,60.88
2023-01-02T16:41:34.084Z,60.12
2023-01-02T16:44:01.727Z,60.27
2023-01-02T16:46:28.928Z,60.74
2023-01-02T16:49:01.347Z,61.18
2023-01-02T16:51:32.367Z,61.90
2023-01-02T16:53:59.483Z,62.93
2023-01-02T16:56:26.522Z,63.15
2023-01-02T16:58:53.582Z,61.94
2023-01-02T17:01:20.839Z,61.50
2023-01-02T17:03:47.862Z,61.99
2023-01-02T17:06:15.966Z,62.20
2023-01-02T17:08:42.926Z,62.43
2023-01-02T17:11:15.187Z,63.06
2023-01-02T17:13:42.675Z,63.56
2023-01-02T17:16:09.797Z,63.41
2023-01-02T17:18:36.856Z,62.29
2023-01-02T17:21:03.901Z,61.30
2023-01-02T17:23:30.896Z,61.50
2023-01-02T17:25:57.905Z,61.74
2023-01-02T17:28:24.992Z,62.42
2023-01-02T17:30:52.131Z,63.01
2023-01-02T17:33:20.073Z,63.65
2023-01-02T17:35:47.732Z,63.79
2023-01-02T17:38:14.812Z,63.07
2023-01-02T17:40:42.478Z,61.92
2023-01-02T17:43:09.333Z,61.51
2023-01-02T17:45:36.201Z,62.46
2023-01-02T17:48:11.171Z,62.56
2023-01-02T17:50:38.985Z,64.51
2023-01-02T17:53:07.563Z,64.34
2023-01-02T17:55:34.902Z,64.82
2023-01-02T17:58:03.575Z,63.42
2023-01-02T18:00:30.598Z,63.19
2023-01-02T18:02:57.624Z,62.83
2023-01-02T18:05:24.505Z,62.37
2023-01-02T18:07:53.692Z,62.65
2023-01-02T18:10:21.463Z,63.49
2023-01-02T18:12:50.474Z,64.71
2023-01-02T18:15:20.304Z,65.20
2023-01-02T18:17:47.831Z,64.06
2023-01-02T18:20:20.433Z,63.07
2023-01-02T18:22:50.130Z,63.38
2023-01-02T18:25:24.443Z,63.69
2023-01-02T18:27:51.816Z,64.14
2023-01-02T18:30:23.839Z,64.52
2023-01-02T18:33:10.939Z,64.72
2023-01-02T18:35:56.597Z,63.08
2023-01-02T18:38:30.822Z,62.77
2023-01-02T18:40:57.840Z,62.72
2023-01-02T18:43:24.817Z,63.12
2023-01-02T18:45:54.738Z,63.67
2023-01-02T18:48:22.062Z,64.34
2023-01-02T18:51:00.132Z,64.78
2023-01-02T18:53:35.444Z,64.69
2023-01-02T18:56:11.363Z,63.55
2023-01-02T18:58:44.164Z,62.95
2023-01-02T19:01:24.888Z,62.91
2023-01-02T19:03:56.771Z,63.57
2023-01-02T19:06:25.903Z,63.82
2023-01-02T19:08:52.893Z,64.53
2023-01-02T19:11:49.829Z,65.14
2023-01-02T19:14:18.397Z,65.28
2023-01-02T19:16:45.325Z,64.05
2023-01-02T19:19:24.136Z,62.99
2023-01-02T19:21:51.324Z,63.47
2023-01-02T19:24:20.271Z,63.64
2023-01-02T19:26:48.969Z,64.00
2023-01-02T19:29:22.777Z,64.75
2023-01-02T19:32:02.287Z,64.79
2023-01-02T19:34:45.833Z,64.14
2023-01-02T19:37:12.954Z,63.97
2023-01-02T19:39:54.301Z,64.53
2023-01-02T19:42:22.293Z,64.97
2023-01-02T19:44:55.545Z,66.75
2023-01-02T19:47:24.534Z,67.03
2023-01-02T19:49:51.664Z,66.41
2023-01-02T19:52:19.407Z,65.00
2023-01-02T19:54:46.437Z,64.02
2023-01-02T19:57:13.705Z,64.26
2023-01-02T19:59:45.448Z,64.05
2023-01-02T20:02:13.525Z,65.09
2023-01-02T20:04:42.616Z,65.54
2023-01-02T20:07:09.512Z,65.46
2023-01-02T20:09:36.880Z,64.38
2023-01-02T20:12:23.049Z,64.45
2023-01-02T20:14:49.979Z,64.77
2023-01-02T20:17:16.885Z,65.01
2023-01-02T20:19:43.733Z,65.28
2023-01-02T20:22:10.675Z,65.80
2023-01-02T20:24:39.858Z,65.83
2023-01-02T20:27:07.716Z,64.63
2023-01-02T20:29:34.571Z,64.19
2023-01-02T20:32:02.240Z,64.60
2023-01-02T20:34:29.817Z,64.71
2023-01-02T20:36:57.999Z,65.28
2023-01-02T20:39:27.441Z,66.46
2023-01-02T20:41:54.381Z,66.63
2023-01-02T20:44:21.246Z,64.95
2023-01-02T20:46:48.125Z,64.57
2023-01-02T20:49:15.269Z,64.19
2023-01-02T20:51:42.312Z,64.70
2023-01-02T20:54:10.061Z,65.15
2023-01-02T20:56:36.920Z,65.66
2023-01-02T20:59:03.867Z,66.04
2023-01-02T21:01:30.865Z,64.54
2023-01-02T21:03:58.946Z,63.94
2023-01-02T21:06:25.947Z,64.02
2023-01-02T21:08:53.591Z,64.38
2023-01-02T21:11:20.439Z,64.93
2023-01-02T21:13:47.391Z,66.04
2023-01-02T21:16:14.795Z,66.22
2023-01-02T21:18:42.798Z,64.82
2023-01-02T21:21:16.398Z,64.45
2023-01-02T21:23:43.541Z,64.38
2023-01-02T21:26:12.271Z,64.76
2023-01-02T21:28:39.168Z,65.36
2023-01-02T21:31:06.855Z,65.49
2023-01-02T21:33:33.757Z,65.95
2023-01-02T21:36:01.643Z,65.04
2023-01-02T21:38:29.635Z,65.21
2023-01-02T21:41:16.739Z,65.13
2023-01-02T21:43:44.627Z,65.69
2023-01-02T21:46:11.659Z,66.09
2023-01-02T21:48:39.630Z,66.73
2023-01-02T21:51:08.465Z,66.71
2023-01-02T21:53:36.748Z,65.56
2023-01-02T21:56:03.925Z,65.25
2023-01-02T21:58:31.417Z,64.94
2023-01-02T22:00:58.489Z,65.63
2023-01-02T22:03:25.539Z,65.65
2023-01-02T22:05:53.830Z,66.21
2023-01-02T22:08:21.202Z,66.44
2023-01-02T22:10:49.093Z,65.55
2023-01-02T22:13:16.408Z,65.35
2023-01-02T22:15:45.713Z,65.24
2023-01-02T22:18:25.672Z,65.81
2023-01-02T22:20:52.665Z,65.87
2023-01-02T22:23:20.193Z,66.73
2023-01-02T22:25:47.138Z,66.81
2023-01-02T22:28:13.948Z,65.66
2023-01-02T22:30:40.887Z,64.74
2023-01-02T22:33:07.774Z,64.99
2023-01-02T22:35:35.059Z,65.58
2023-01-02T22:38:02.063Z,65.72
2023-01-02T22:40:29.261Z,66.00
2023-01-02T22:43:05.427Z,66.53
2023-01-02T22:45:35.982Z,65.19
2023-01-02T22:48:05.909Z,64.74
2023-01-02T22:50:40.293Z,64.32
2023-01-02T22:53:11.627Z,64.80
2023-01-02T22:55:38.525Z,65.47
2023-01-02T22:58:06.894Z,66.15
2023-01-02T23:00:34.776Z,66.50
2023-01-02T23:03:01.800Z,65.29
2023-01-02T23:05:28.747Z,64.94
2023-01-02T23:07:55.759Z,64.89
2023-01-02T23:10:22.823Z,65.18
2023-01-02T23:12:50.045Z,65.76
2023-01-02T23:15:17.080Z,66.89
2023-01-02T23:18:03.854Z,66.99
2023-01-02T23:20:30.835Z,65.87
2023-01-02T23:22:57.663Z,65.64
2023-01-02T23:25:24.587Z,65.49
2023-01-02T23:27:51.740Z,66.05
2023-01-02T23:30:19.365Z,66.21
2023-01-02T23:32:46.380Z,66.92
2023-01-02T23:35:13.283Z,66.96
2023-01-02T23:37:43.232Z,66.03
2023-01-02T23:40:10.862Z,65.56
2023-01-02T23:42:37.900Z,65.67
2023-01-02T23:45:07.861Z,66.16
2023-01-02T23:47:34.965Z,66.73
2023-01-02T23:50:01.922Z,67.26
2023-01-02T23:52:28.934Z,67.13
2023-01-02T23:54:55.766Z,65.98
2023-01-02T23:57:22.881Z,65.72
2023-01-02T23:59:50.247Z,66.01
